Terminal Aerodrome Forecast
Issued by NWS

Home | Current Version | Previous Version | Text Only | Print | Product List | Glossary On
Versions: 1 2 3 4 5 6 7 8 9 10 11 12 13 14 15 16 17 18 19 20 21 22 23 24 25 26 27
000
FTUS43 KAPX 220521
TAFMBL
TAF
KMBL 220521Z 2206/2306 14007KT P6SM BKN040 OVC150 WS020/18030KT
     FM220900 13006KT P6SM BKN050
     FM221700 12007KT P6SM BKN150
     FM230000 11007KT 6SM -RA SCT015 OVC035
     FM230300 11008KT 5SM -RA BR OVC015
      AMD LTD TO CLD VIS AND WIND=

USA.gov is the U.S. government's official web portal to all federal, state and local government web resources and services.